Hammond, Louisiana
Current Conditions -  °F | °C
As of 3:35 AM on Thursday 18 Dec 2014 (Local Time) from K1L0 Reporting Station
Clear Clear  
Wind Chill:   Ceiling: Unl
Heat Index:   Visibility: 10mi
Dew Point:   Wind: 0mph
Humidity: 88%   Direction: NA
Pressure: 30.17"   Gusts: NA
Location:  30.5°N, 90.46°W
Report Text: K1L0 180935Z AUTO 00000KT 10SM CLR 09/07 A3017 RMK AO2 T00900071
Loading
Personal Weather Stations






























Interactive Weather Map New forecast layout! Learn more

10-Day Weather Forecast

Advertisements
Track Severe Weather on mobile